Time;durP1;ratioP1;P1;durP2;ratioP2;P2;SDS_P1;SDS_P2;PMS_P1;PMS_P2;Temp;Humidity;BMP_temperature;BMP_pressure;BME280_temperature;BME280_humidity;BME280_pressure;Samples;Min_cycle;Max_cycle;Signal;HPM_P1;HPM_P2
2021/09/27 00:00:37;;;;;;;11.20;7.70;;;16.30;99.90;;;;;;5067188;28;20157;-78
2021/09/27 00:03:04;;;;;;;13.98;8.18;;;16.30;99.90;;;;;;5067045;28;20200;-77
2021/09/27 00:05:31;;;;;;;15.95;8.68;;;16.30;99.90;;;;;;5067142;28;20156;-78
2021/09/27 00:07:57;;;;;;;17.40;8.50;;;16.20;99.90;;;;;;5067001;28;20222;-79
2021/09/27 00:10:36;;;;;;;12.52;8.15;;;16.20;99.90;;;;;;5067153;28;20157;-78
2021/09/27 00:13:04;;;;;;;10.05;7.78;;;16.30;99.90;;;;;;5067141;28;20168;-78
2021/09/27 00:15:36;;;;;;;12.45;8.30;;;16.20;99.90;;;;;;5067016;28;20160;-79
2021/09/27 00:18:04;;;;;;;11.77;8.32;;;16.20;99.90;;;;;;5066808;28;20189;-79
2021/09/27 00:20:30;;;;;;;12.85;8.32;;;16.20;99.90;;;;;;5066999;28;20165;-78
2021/09/27 00:22:56;;;;;;;13.95;7.97;;;16.20;99.90;;;;;;5066885;28;20282;-78
2021/09/27 00:25:26;;;;;;;16.55;7.82;;;16.20;99.90;;;;;;5066924;28;20175;-78
2021/09/27 00:27:52;;;;;;;12.18;8.05;;;16.20;99.90;;;;;;5066843;28;20251;-78
2021/09/27 00:30:20;;;;;;;9.80;7.80;;;16.20;99.90;;;;;;5066860;28;20161;-78
2021/09/27 00:32:47;;;;;;;11.18;7.30;;;16.20;99.90;;;;;;5066847;28;20229;-78
2021/09/27 00:35:16;;;;;;;14.07;8.27;;;16.20;99.90;;;;;;5066901;28;20171;-78
2021/09/27 00:37:42;;;;;;;12.20;7.90;;;16.20;99.90;;;;;;5066813;28;20201;-78
2021/09/27 00:40:11;;;;;;;11.50;8.60;;;16.10;99.90;;;;;;5066760;28;20215;-78
2021/09/27 00:42:37;;;;;;;8.45;7.43;;;16.20;99.90;;;;;;5066666;28;20196;-79
2021/09/27 00:45:06;;;;;;;10.82;7.82;;;16.20;99.90;;;;;;5066814;28;20317;-79
2021/09/27 00:47:32;;;;;;;11.07;7.50;;;16.20;99.90;;;;;;5066947;28;20203;-78
2021/09/27 00:49:59;;;;;;;11.77;8.10;;;16.20;99.90;;;;;;5048772;28;20172;-78
2021/09/27 00:52:26;;;;;;;13.15;8.15;;;16.20;99.90;;;;;;5070003;28;20224;-78
2021/09/27 00:54:54;;;;;;;16.30;8.60;;;16.20;99.90;;;;;;5070433;28;20169;-78
2021/09/27 00:57:23;;;;;;;10.70;8.27;;;16.10;99.90;;;;;;5070096;28;20255;-79
2021/09/27 00:59:52;;;;;;;13.70;8.60;;;16.10;99.90;;;;;;5070372;28;20157;-78
2021/09/27 01:02:18;;;;;;;12.00;8.50;;;16.00;99.90;;;;;;5070434;28;20279;-79
2021/09/27 01:04:46;;;;;;;15.55;9.95;;;16.00;99.90;;;;;;5070593;28;20161;-79
2021/09/27 01:07:24;;;;;;;12.43;8.70;;;15.90;99.90;;;;;;5070409;28;20253;-78
2021/09/27 01:10:14;;;;;;;14.63;9.55;;;15.90;99.90;;;;;;5072279;28;20614;-78
2021/09/27 01:13:10;;;;;;;12.00;8.63;;;15.90;99.90;;;;;;5073205;28;20161;-79
2021/09/27 01:15:50;;;;;;;13.07;8.38;;;15.90;99.90;;;;;;5072766;28;20161;-78
2021/09/27 01:18:32;;;;;;;15.77;10.48;;;15.90;99.90;;;;;;5070104;28;20219;-79
2021/09/27 01:21:14;;;;;;;21.17;11.25;;;15.90;99.90;;;;;;5070058;28;20195;-79
2021/09/27 01:24:02;;;;;;;15.55;9.68;;;15.80;99.90;;;;;;5070105;28;20188;-79
2021/09/27 01:26:58;;;;;;;20.77;10.77;;;15.80;99.90;;;;;;5069927;28;20586;-80
2021/09/27 01:29:58;;;;;;;17.30;10.18;;;15.80;99.90;;;;;;5069844;28;20164;-79
2021/09/27 01:32:31;;;;;;;18.67;9.60;;;15.80;99.90;;;;;;5069748;28;20176;-79
2021/09/27 01:35:27;;;;;;;15.07;9.57;;;15.80;99.90;;;;;;5069764;28;20161;-79
2021/09/27 01:38:07;;;;;;;15.00;9.80;;;15.80;99.90;;;;;;5069796;28;20637;-79
2021/09/27 01:40:33;;;;;;;16.17;10.98;;;15.80;99.90;;;;;;5069718;28;20157;-80
2021/09/27 01:43:25;;;;;;;15.38;9.73;;;15.80;99.90;;;;;;5069631;28;20246;-80
2021/09/27 01:46:50;;;;;;;15.00;10.25;;;15.80;99.90;;;;;;5069610;28;20168;-80
2021/09/27 01:49:39;;;;;;;13.20;9.38;;;15.70;99.90;;;;;;4968502;29;20188;-80
2021/09/27 01:52:16;;;;;;;15.80;9.55;;;15.60;99.90;;;;;;4968930;29;20322;-80
2021/09/27 01:54:52;;;;;;;14.73;9.20;;;15.70;99.90;;;;;;5036762;28;20184;-80
2021/09/27 01:57:34;;;;;;;14.98;10.05;;;15.80;99.90;;;;;;5048046;28;20299;-80
2021/09/27 02:00:23;;;;;;;15.23;10.60;;;15.70;99.90;;;;;;5049356;28;20158;-80
2021/09/27 02:02:57;;;;;;;14.10;9.65;;;15.70;99.90;;;;;;5049190;28;20670;-80
2021/09/27 02:06:09;;;;;;;13.07;8.95;;;15.70;99.90;;;;;;5049267;28;20168;-80
2021/09/27 02:08:45;;;;;;;15.48;10.35;;;15.70;99.90;;;;;;5049074;28;20193;-80
2021/09/27 02:11:28;;;;;;;16.75;9.23;;;15.70;99.90;;;;;;5049206;28;20162;-81
2021/09/27 02:14:13;;;;;;;11.10;8.35;;;15.70;99.90;;;;;;5031505;28;20563;-81
2021/09/27 02:16:52;;;;;;;15.48;10.57;;;15.80;99.90;;;;;;5048802;28;20156;-80
2021/09/27 02:19:47;;;;;;;13.18;9.65;;;15.90;99.90;;;;;;5048929;28;20157;-80
2021/09/27 02:22:27;;;;;;;14.05;9.20;;;16.00;99.90;;;;;;5045244;28;20303;-80
2021/09/27 02:25:13;;;;;;;15.60;10.48;;;15.90;99.90;;;;;;5048700;28;20661;-81
2021/09/27 02:27:40;;;;;;;15.73;10.00;;;16.00;99.90;;;;;;5048765;28;20193;-80
2021/09/27 02:30:11;;;;;;;16.30;9.35;;;15.90;99.90;;;;;;5048792;28;20157;-80
2021/09/27 02:32:56;;;;;;;16.70;9.43;;;15.80;99.90;;;;;;5049210;28;20173;-80
2021/09/27 02:35:49;;;;;;;13.57;8.77;;;15.90;99.90;;;;;;5048969;28;20181;-80
2021/09/27 02:38:38;;;;;;;13.48;10.13;;;16.00;99.90;;;;;;5040189;28;20215;-82
2021/09/27 02:41:23;;;;;;;18.88;8.65;;;16.00;99.90;;;;;;5020482;28;20193;-80
2021/09/27 02:43:49;;;;;;;12.27;9.18;;;15.90;99.90;;;;;;5048587;28;20274;-80
2021/09/27 02:46:15;;;;;;;16.58;9.70;;;16.00;99.90;;;;;;5048834;28;20256;-80
2021/09/27 02:48:53;;;;;;;13.70;9.48;;;16.10;99.90;;;;;;5048387;28;20243;-80
2021/09/27 02:51:20;;;;;;;16.63;10.20;;;15.90;99.90;;;;;;5048524;28;20339;-81
2021/09/27 02:53:46;;;;;;;18.58;10.55;;;16.00;99.90;;;;;;5048475;28;20195;-81
2021/09/27 02:56:49;;;;;;;15.77;10.07;;;16.00;99.90;;;;;;5048759;28;20189;-81
2021/09/27 02:59:52;;;;;;;14.05;10.27;;;15.90;99.90;;;;;;5048529;28;20165;-80
2021/09/27 03:02:32;;;;;;;15.25;10.13;;;16.00;99.90;;;;;;5048004;28;20239;-81
2021/09/27 03:05:04;;;;;;;14.73;10.48;;;16.00;99.90;;;;;;5048036;28;20185;-79
2021/09/27 03:07:45;;;;;;;19.17;11.80;;;16.10;99.90;;;;;;5047935;28;20200;-80
2021/09/27 03:10:29;;;;;;;15.68;10.88;;;16.00;99.90;;;;;;5048055;28;20155;-81
2021/09/27 03:13:10;;;;;;;15.63;11.35;;;16.10;99.90;;;;;;5048027;28;20172;-81
2021/09/27 03:15:59;;;;;;;20.88;12.07;;;16.00;99.90;;;;;;5048009;28;20227;-79
2021/09/27 03:18:38;;;;;;;19.17;11.00;;;15.90;99.90;;;;;;5039784;28;20220;-79
2021/09/27 03:21:22;;;;;;;15.07;9.82;;;15.90;99.90;;;;;;5047995;28;20175;-79
2021/09/27 03:23:58;;;;;;;15.23;10.50;;;15.80;99.90;;;;;;5047872;28;20185;-79
2021/09/27 03:26:54;;;;;;;17.10;10.48;;;15.80;99.90;;;;;;5047989;28;20168;-80
2021/09/27 03:29:38;;;;;;;13.63;9.73;;;15.80;99.90;;;;;;5048437;28;20161;-81
2021/09/27 03:32:19;;;;;;;19.38;11.10;;;15.90;99.90;;;;;;5047909;28;20179;-80
2021/09/27 03:35:07;;;;;;;15.40;9.82;;;15.90;99.90;;;;;;5048117;28;20165;-80
2021/09/27 03:37:57;;;;;;;13.95;9.75;;;15.80;99.90;;;;;;5047672;28;20197;-79
2021/09/27 03:40:23;;;;;;;14.85;10.93;;;15.80;99.90;;;;;;5047735;28;20170;-80
2021/09/27 03:42:49;;;;;;;14.52;10.85;;;15.80;99.90;;;;;;5047679;28;20207;-81
2021/09/27 03:45:34;;;;;;;19.83;11.93;;;15.80;99.90;;;;;;5047831;28;20184;-79
2021/09/27 03:48:10;;;;;;;14.98;10.50;;;15.80;99.90;;;;;;5029632;28;20205;-80
2021/09/27 03:51:03;;;;;;;19.17;10.65;;;15.70;99.90;;;;;;5047197;28;20168;-80
2021/09/27 03:53:36;;;;;;;21.98;10.93;;;15.70;99.90;;;;;;5047573;28;20299;-80
2021/09/27 03:56:11;;;;;;;16.77;11.18;;;15.70;99.90;;;;;;5047853;28;20162;-80
2021/09/27 03:58:43;;;;;;;18.10;10.82;;;15.70;99.90;;;;;;5047387;28;20275;-79
2021/09/27 04:01:35;;;;;;;19.40;11.35;;;15.70;99.90;;;;;;5065746;28;20208;-81
2021/09/27 04:04:13;;;;;;;16.33;11.77;;;15.70;99.90;;;;;;5057673;28;20192;-80
2021/09/27 04:06:50;;;;;;;15.63;11.73;;;15.70;99.90;;;;;;5070603;28;20164;-80
2021/09/27 04:09:38;;;;;;;20.45;10.88;;;15.70;99.90;;;;;;5070854;28;20183;-80
2021/09/27 04:12:38;;;;;;;16.33;10.60;;;15.70;99.90;;;;;;5066356;28;20175;-80
2021/09/27 04:15:12;;;;;;;24.67;12.13;;;15.70;99.90;;;;;;5047521;28;20184;-81
2021/09/27 04:17:44;;;;;;;17.98;10.55;;;15.80;99.90;;;;;;5055754;28;20196;-80
2021/09/27 04:20:42;;;;;;;17.88;11.25;;;15.80;99.90;;;;;;5067300;28;20172;-80
2021/09/27 04:23:29;;;;;;;35.30;12.60;;;15.80;99.90;;;;;;5051514;28;20203;-81
2021/09/27 04:26:06;;;;;;;19.75;11.70;;;15.70;99.90;;;;;;5068634;28;20294;-81
2021/09/27 04:28:59;;;;;;;8.60;6.25;;;15.70;99.90;;;;;;5071181;28;20210;-81
2021/09/27 04:31:44;;;;;;;6.43;4.40;;;15.70;99.90;;;;;;5057748;28;20164;-81
2021/09/27 04:34:15;;;;;;;6.57;4.30;;;15.70;99.90;;;;;;5070930;28;20203;-80
2021/09/27 04:36:45;;;;;;;5.85;3.83;;;15.70;99.90;;;;;;5070690;28;20217;-80
2021/09/27 04:39:19;;;;;;;5.28;3.67;;;15.70;99.90;;;;;;5071003;28;20164;-79
2021/09/27 04:42:15;;;;;;;7.40;4.20;;;15.70;99.90;;;;;;5070798;28;20180;-79
2021/09/27 04:45:29;;;;;;;6.60;4.00;;;15.80;99.90;;;;;;5071275;28;20222;-81
2021/09/27 04:48:22;;;;;;;7.93;3.75;;;15.80;99.90;;;;;;4988633;28;20215;-80
2021/09/27 04:51:00;;;;;;;6.55;3.83;;;15.80;99.90;;;;;;5068723;28;20157;-80
2021/09/27 04:53:37;;;;;;;6.45;3.72;;;15.80;99.90;;;;;;5069102;28;20259;-81
2021/09/27 04:56:33;;;;;;;9.43;4.32;;;15.80;99.90;;;;;;5070668;28;20230;-80
2021/09/27 04:59:19;;;;;;;5.97;3.58;;;15.70;99.90;;;;;;5070523;28;20613;-81
2021/09/27 05:01:56;;;;;;;4.47;2.33;;;15.80;99.90;;;;;;5070306;28;20168;-81
2021/09/27 05:04:30;;;;;;;9.07;3.60;;;15.90;99.90;;;;;;5070101;28;20225;-80
2021/09/27 05:07:04;;;;;;;6.22;3.17;;;15.90;99.90;;;;;;5069992;28;20192;-81
2021/09/27 05:09:57;;;;;;;4.97;3.53;;;15.80;99.90;;;;;;5068983;28;20173;-80
2021/09/27 05:12:32;;;;;;;6.10;3.85;;;15.90;99.90;;;;;;5069542;28;20232;-79
2021/09/27 05:15:35;;;;;;;8.05;4.45;;;15.90;99.90;;;;;;5070095;28;20610;-80
2021/09/27 05:18:29;;;;;;;6.15;3.38;;;15.80;99.90;;;;;;5069882;28;20204;-81
2021/09/27 05:21:14;;;;;;;7.47;3.78;;;15.90;99.90;;;;;;5056849;28;20177;-81
2021/09/27 05:23:40;;;;;;;7.40;3.75;;;15.90;99.90;;;;;;5069859;28;20283;-81
2021/09/27 05:26:06;;;;;;;5.47;3.50;;;15.90;99.90;;;;;;5069929;28;20168;-82
2021/09/27 05:28:50;;;;;;;6.88;5.03;;;16.00;99.90;;;;;;5035372;28;20200;-82
2021/09/27 05:31:53;;;;;;;5.57;3.53;;;16.00;99.90;;;;;;5052319;28;20176;-80
2021/09/27 05:34:18;;;;;;;5.13;3.58;;;16.10;99.90;;;;;;5069424;28;20191;-80
2021/09/27 05:37:04;;;;;;;5.78;3.72;;;16.00;99.90;;;;;;5069628;28;20164;-81
2021/09/27 05:39:39;;;;;;;5.07;3.67;;;16.00;99.90;;;;;;5071023;28;20183;-81
2021/09/27 05:42:35;;;;;;;7.80;4.13;;;16.10;99.90;;;;;;5070926;28;20196;-81
2021/09/27 05:45:25;;;;;;;7.65;4.78;;;16.20;99.90;;;;;;5057096;28;20230;-81
2021/09/27 05:47:55;;;;;;;8.63;4.38;;;16.20;99.90;;;;;;5069493;28;20192;-81
2021/09/27 05:50:39;;;;;;;8.25;5.28;;;16.10;99.90;;;;;;5069392;28;20173;-81
2021/09/27 05:53:13;;;;;;;8.75;5.22;;;16.20;99.90;;;;;;5069441;28;20180;-81
2021/09/27 05:55:39;;;;;;;6.85;3.63;;;16.20;99.90;;;;;;5069322;28;20197;-81
2021/09/27 05:58:28;;;;;;;5.72;4.10;;;16.20;99.90;;;;;;5069222;28;20260;-81
2021/09/27 06:01:17;;;;;;;4.82;3.65;;;16.20;99.90;;;;;;5042196;28;20188;-77
2021/09/27 06:03:54;;;;;;;9.68;4.03;;;16.20;99.90;;;;;;5069206;28;20180;-76
2021/09/27 06:06:40;;;;;;;6.88;4.10;;;16.20;99.90;;;;;;5069199;28;20157;-77
2021/09/27 06:09:19;;;;;;;6.30;4.57;;;16.20;99.90;;;;;;5069257;28;20224;-76
2021/09/27 06:11:51;;;;;;;6.35;3.67;;;16.10;99.90;;;;;;5069056;28;20156;-76
2021/09/27 06:14:18;;;;;;;7.50;4.07;;;16.10;99.90;;;;;;5049022;28;20180;-75
2021/09/27 06:16:58;;;;;;;8.45;4.97;;;16.20;99.90;;;;;;5031039;28;20176;-75
2021/09/27 06:19:47;;;;;;;6.70;4.53;;;16.20;99.90;;;;;;5048658;28;20235;-75
2021/09/27 06:22:50;;;;;;;5.70;4.07;;;16.20;99.90;;;;;;5048716;28;20189;-74
2021/09/27 06:25:25;;;;;;;5.57;4.13;;;16.20;99.90;;;;;;5048796;28;20187;-74
2021/09/27 06:28:16;;;;;;;7.40;4.00;;;16.10;99.90;;;;;;5048415;28;20185;-76
2021/09/27 06:30:51;;;;;;;7.95;3.67;;;16.10;99.90;;;;;;5048512;28;20537;-76
2021/09/27 06:33:41;;;;;;;10.18;3.67;;;16.00;99.90;;;;;;5048850;28;20650;-76
2021/09/27 06:36:12;;;;;;;5.50;3.17;;;16.00;99.90;;;;;;5053977;28;20192;-76
2021/09/27 06:38:38;;;;;;;6.10;4.13;;;16.00;99.90;;;;;;5056618;28;20189;-76
2021/09/27 06:41:09;;;;;;;7.68;5.32;;;16.00;99.90;;;;;;5064726;28;20175;-77
2021/09/27 06:43:36;;;;;;;6.88;4.18;;;16.10;99.90;;;;;;5067526;28;20248;-76
2021/09/27 06:46:02;;;;;;;6.10;4.25;;;16.10;99.90;;;;;;5048701;28;20166;-77
2021/09/27 06:48:28;;;;;;;5.70;4.18;;;16.10;99.90;;;;;;5047785;28;20200;-76
2021/09/27 06:50:55;;;;;;;8.23;4.50;;;16.10;99.90;;;;;;5048380;28;20292;-76
2021/09/27 06:53:21;;;;;;;6.20;3.35;;;16.10;99.90;;;;;;5059387;28;20236;-76
2021/09/27 06:55:47;;;;;;;9.63;4.43;;;16.10;99.90;;;;;;5068087;28;20728;-77
2021/09/27 06:58:13;;;;;;;4.75;3.22;;;16.10;99.90;;;;;;5065152;28;20641;-75
2021/09/27 07:00:41;;;;;;;5.28;4.10;;;16.00;99.90;;;;;;5065295;28;20353;-75
2021/09/27 07:03:07;;;;;;;7.22;4.22;;;16.00;99.90;;;;;;5064931;28;20702;-77
2021/09/27 07:05:33;;;;;;;3.83;2.60;;;15.90;99.90;;;;;;5065459;28;20176;-75
2021/09/27 07:08:01;;;;;;;5.70;4.13;;;15.90;99.90;;;;;;5065810;28;20184;-75
2021/09/27 07:10:28;;;;;;;6.53;4.55;;;15.90;99.90;;;;;;5054704;28;20154;-75
2021/09/27 07:12:54;;;;;;;7.15;3.85;;;15.80;99.90;;;;;;5047440;28;20232;-74
2021/09/27 07:15:21;;;;;;;6.63;3.70;;;15.90;99.90;;;;;;5048023;28;20165;-77
2021/09/27 07:17:47;;;;;;;14.48;4.45;;;15.90;99.90;;;;;;5047791;28;20193;-77
2021/09/27 07:20:16;;;;;;;6.05;3.85;;;15.80;99.90;;;;;;5062412;28;20196;-76
2021/09/27 07:22:43;;;;;;;5.45;3.13;;;15.80;99.90;;;;;;5046975;28;20267;-77
2021/09/27 07:25:11;;;;;;;4.25;3.40;;;15.80;99.90;;;;;;5067789;28;20558;-76
2021/09/27 07:27:37;;;;;;;3.90;2.78;;;15.80;99.90;;;;;;5067005;28;20696;-76
2021/09/27 07:30:06;;;;;;;3.53;3.17;;;15.90;99.90;;;;;;5067722;28;20153;-75
2021/09/27 07:32:32;;;;;;;4.97;4.00;;;15.90;99.90;;;;;;5067505;28;20225;-75
2021/09/27 07:34:58;;;;;;;7.07;4.30;;;16.00;99.90;;;;;;5067503;28;20232;-75
2021/09/27 07:37:24;;;;;;;4.28;3.88;;;16.10;99.90;;;;;;5066554;28;20204;-75
2021/09/27 07:39:50;;;;;;;7.63;5.18;;;16.10;99.90;;;;;;5063005;28;20598;-74
2021/09/27 07:42:16;;;;;;;4.22;3.45;;;16.20;99.90;;;;;;5067114;28;20275;-74
2021/09/27 07:44:41;;;;;;;5.10;3.42;;;16.30;99.90;;;;;;5054548;28;20171;-74
2021/09/27 07:47:07;;;;;;;6.88;4.05;;;16.30;99.90;;;;;;5047331;28;20197;-74
2021/09/27 07:49:33;;;;;;;5.38;4.00;;;16.30;99.90;;;;;;5047284;28;20183;-75
2021/09/27 07:51:59;;;;;;;4.82;3.40;;;16.30;99.90;;;;;;5047292;28;20256;-75
2021/09/27 07:54:27;;;;;;;5.32;3.70;;;16.30;99.90;;;;;;5029423;28;20165;-76
2021/09/27 07:56:53;;;;;;;5.55;4.43;;;16.40;99.90;;;;;;5047117;28;20189;-75
2021/09/27 07:59:19;;;;;;;6.20;3.92;;;16.40;99.90;;;;;;5048224;28;20162;-76
2021/09/27 08:01:45;;;;;;;7.50;3.97;;;16.40;99.90;;;;;;5051564;28;20219;-75
2021/09/27 08:04:14;;;;;;;5.88;3.78;;;16.50;99.90;;;;;;5068339;28;20585;-76
2021/09/27 08:06:41;;;;;;;4.60;3.17;;;16.60;99.90;;;;;;5071042;28;20164;-76
2021/09/27 08:09:08;;;;;;;5.60;3.20;;;16.60;99.90;;;;;;5071447;28;20197;-76
2021/09/27 08:11:36;;;;;;;4.32;3.13;;;16.70;99.90;;;;;;5070417;28;20200;-76
2021/09/27 08:14:03;;;;;;;6.75;4.43;;;16.80;99.90;;;;;;5053243;28;20184;-76
2021/09/27 08:16:31;;;;;;;4.60;3.17;;;16.90;99.90;;;;;;5069339;28;20226;-75
2021/09/27 08:18:57;;;;;;;7.03;3.97;;;16.90;99.90;;;;;;5071029;28;20192;-75
2021/09/27 08:21:24;;;;;;;8.50;4.50;;;17.00;99.90;;;;;;5071267;28;20167;-75
2021/09/27 08:23:50;;;;;;;6.20;3.97;;;17.00;99.90;;;;;;5071308;28;20188;-75
2021/09/27 08:26:18;;;;;;;6.22;4.05;;;17.10;99.90;;;;;;5069673;28;20211;-76
2021/09/27 08:28:45;;;;;;;5.57;3.72;;;17.20;99.90;;;;;;5070998;28;20169;-75
2021/09/27 08:31:19;;;;;;;8.80;4.65;;;17.30;99.90;;;;;;5057782;28;20221;-75
2021/09/27 08:33:52;;;;;;;6.10;4.03;;;17.40;99.90;;;;;;5070940;28;20195;-75
2021/09/27 08:36:20;;;;;;;7.20;5.22;;;17.40;99.90;;;;;;5070807;28;20239;-75
2021/09/27 08:38:47;;;;;;;7.63;4.85;;;17.40;99.90;;;;;;5052457;28;20191;-75
2021/09/27 08:41:21;;;;;;;6.22;4.35;;;17.40;99.90;;;;;;5069946;28;20204;-75
2021/09/27 08:44:03;;;;;;;5.80;4.20;;;17.50;99.90;;;;;;5070144;28;20200;-75
2021/09/27 08:46:38;;;;;;;6.40;2.70;;;17.50;99.90;;;;;;5070766;28;20157;-77
2021/09/27 08:49:42;;;;;;;5.43;3.85;;;17.40;99.90;;;;;;5070375;28;20157;-76
2021/09/27 08:52:14;;;;;;;5.38;3.08;;;17.40;99.90;;;;;;4989146;28;20694;-79
2021/09/27 08:54:41;;;;;;;5.63;4.03;;;17.50;99.90;;;;;;4989278;28;20241;-79
2021/09/27 08:57:24;;;;;;;4.28;2.60;;;17.50;99.90;;;;;;4989565;28;20206;-79
2021/09/27 08:59:59;;;;;;;6.95;3.72;;;17.80;99.90;;;;;;4989296;28;20168;-79
2021/09/27 09:02:35;;;;;;;3.10;2.55;;;18.00;99.90;;;;;;4991566;28;20210;-79
2021/09/27 09:05:06;;;;;;;3.33;2.58;;;18.00;99.90;;;;;;4991722;28;20163;-79
2021/09/27 09:07:34;;;;;;;3.50;2.58;;;17.80;99.90;;;;;;4991020;28;20183;-78
2021/09/27 09:10:05;;;;;;;3.58;3.08;;;17.80;99.90;;;;;;4989405;28;20175;-80
2021/09/27 09:12:49;;;;;;;4.68;3.33;;;17.80;99.90;;;;;;4986051;28;20181;-80
2021/09/27 09:15:20;;;;;;;11.30;4.10;;;17.80;99.90;;;;;;4986343;28;20345;-80
2021/09/27 09:18:04;;;;;;;6.32;2.92;;;17.90;99.90;;;;;;4974568;28;20661;-81
2021/09/27 09:20:33;;;;;;;4.82;3.55;;;17.90;99.90;;;;;;4969729;29;20295;-81
2021/09/27 09:22:59;;;;;;;4.07;2.10;;;17.90;99.90;;;;;;4969731;29;20207;-79
2021/09/27 09:25:30;;;;;;;5.25;3.03;;;17.80;99.90;;;;;;4969784;29;20179;-78
2021/09/27 09:27:57;;;;;;;4.78;2.60;;;17.80;99.90;;;;;;5021098;28;20189;-78
2021/09/27 09:30:34;;;;;;;4.38;2.78;;;17.80;99.90;;;;;;5056354;28;20179;-79
2021/09/27 09:33:00;;;;;;;5.07;3.08;;;17.80;99.90;;;;;;5069500;28;20212;-80
2021/09/27 09:35:30;;;;;;;6.35;3.95;;;17.80;99.90;;;;;;5069150;28;20203;-81
2021/09/27 09:38:08;;;;;;;5.43;3.80;;;18.00;99.90;;;;;;5069329;28;20185;-81
2021/09/27 09:40:40;;;;;;;6.22;3.85;;;17.90;99.90;;;;;;5069549;28;20180;-79
2021/09/27 09:43:10;;;;;;;4.57;2.90;;;17.80;99.90;;;;;;5051372;28;20222;-81
2021/09/27 09:45:42;;;;;;;4.97;3.13;;;17.80;99.90;;;;;;5068803;28;20173;-81
2021/09/27 09:48:27;;;;;;;3.70;2.72;;;17.80;99.90;;;;;;5069398;28;20172;-78
2021/09/27 09:50:56;;;;;;;6.13;2.78;;;18.00;99.90;;;;;;5069283;28;20240;-78
2021/09/27 09:53:30;;;;;;;3.53;2.40;;;18.10;99.90;;;;;;5069366;28;20212;-77
2021/09/27 09:56:04;;;;;;;3.65;2.80;;;18.20;99.90;;;;;;5068824;28;20194;-77
2021/09/27 09:58:49;;;;;;;7.30;3.45;;;18.00;99.90;;;;;;5069148;28;20157;-77
2021/09/27 10:01:33;;;;;;;3.60;2.67;;;18.10;99.90;;;;;;5069183;28;20164;-78
2021/09/27 10:04:10;;;;;;;4.43;2.90;;;18.10;99.90;;;;;;5068910;28;20211;-77
2021/09/27 10:06:40;;;;;;;6.63;4.00;;;18.00;99.90;;;;;;5068485;28;20196;-78
2021/09/27 10:09:15;;;;;;;4.10;2.53;;;17.90;99.90;;;;;;5069075;28;20243;-78
2021/09/27 10:11:50;;;;;;;5.40;3.15;;;18.00;99.90;;;;;;5068984;28;20206;-77
2021/09/27 10:14:23;;;;;;;3.20;2.90;;;18.00;99.90;;;;;;5069117;28;20188;-77
2021/09/27 10:16:53;;;;;;;8.82;4.35;;;18.10;99.90;;;;;;5068587;28;20157;-79
2021/09/27 10:19:33;;;;;;;6.32;4.05;;;18.20;99.90;;;;;;5068774;28;20157;-78
2021/09/27 10:22:12;;;;;;;5.55;3.38;;;18.20;99.90;;;;;;5068800;28;20164;-79
2021/09/27 10:24:44;;;;;;;5.97;3.85;;;18.00;99.90;;;;;;5068685;28;20192;-80
2021/09/27 10:27:37;;;;;;;3.85;3.15;;;18.00;99.90;;;;;;5067633;28;20173;-80
2021/09/27 10:30:10;;;;;;;6.43;4.50;;;18.10;99.90;;;;;;5050710;28;20212;-79
2021/09/27 10:32:41;;;;;;;5.43;2.92;;;18.20;99.90;;;;;;5050676;28;20179;-80
2021/09/27 10:35:22;;;;;;;6.15;3.85;;;18.20;99.90;;;;;;5068773;28;20602;-80
2021/09/27 10:37:58;;;;;;;6.97;3.60;;;18.40;99.90;;;;;;5070823;28;20239;-75
2021/09/27 10:40:24;;;;;;;3.45;2.85;;;18.50;99.90;;;;;;5070539;28;20156;-75
2021/09/27 10:42:52;;;;;;;6.18;3.65;;;18.50;99.90;;;;;;5088151;28;20227;-75
2021/09/27 10:45:21;;;;;;;3.55;2.90;;;18.60;99.90;;;;;;5070871;28;20165;-75
2021/09/27 10:47:52;;;;;;;4.18;3.53;;;18.60;99.90;;;;;;5067670;28;20153;-75
2021/09/27 10:50:46;;;;;;;4.28;3.40;;;18.50;99.90;;;;;;5067080;28;20184;-75
2021/09/27 10:53:36;;;;;;;3.90;2.75;;;18.30;99.90;;;;;;5010649;28;20208;-75
2021/09/27 10:56:11;;;;;;;4.65;3.00;;;18.30;99.90;;;;;;5008153;28;20198;-75
2021/09/27 10:58:42;;;;;;;5.43;3.22;;;18.30;99.90;;;;;;5007919;28;20604;-75
2021/09/27 11:01:23;;;;;;;5.95;3.50;;;18.40;99.90;;;;;;5008981;28;20163;-74
2021/09/27 11:03:54;;;;;;;4.30;2.67;;;18.40;99.90;;;;;;5008586;28;20182;-74
2021/09/27 11:06:31;;;;;;;2.22;1.98;;;18.30;99.90;;;;;;5008592;28;20182;-74
2021/09/27 11:09:02;;;;;;;3.40;2.15;;;18.30;99.90;;;;;;5008528;28;20694;-75
2021/09/27 11:11:28;;;;;;;4.80;3.05;;;18.30;99.90;;;;;;5024169;28;20226;-78
2021/09/27 11:13:59;;;;;;;3.50;2.92;;;18.30;99.90;;;;;;5016990;28;20213;-79
2021/09/27 11:16:33;;;;;;;6.25;3.13;;;18.30;99.90;;;;;;5017434;28;20174;-79
2021/09/27 11:19:13;;;;;;;3.40;2.72;;;18.30;99.90;;;;;;5008773;28;20163;-77
2021/09/27 11:21:46;;;;;;;4.20;2.35;;;18.40;99.90;;;;;;5008667;28;20193;-77
2021/09/27 11:24:12;;;;;;;3.22;2.85;;;18.40;99.90;;;;;;5008381;28;20286;-77
2021/09/27 11:26:45;;;;;;;3.53;3.00;;;18.40;99.90;;;;;;5009844;28;20182;-78
2021/09/27 11:29:14;;;;;;;3.03;1.88;;;18.40;99.90;;;;;;5010168;28;20158;-77
2021/09/27 11:31:42;;;;;;;3.15;2.53;;;18.40;99.90;;;;;;5009786;28;20170;-75
2021/09/27 11:34:42;;;;;;;3.88;2.60;;;18.60;99.90;;;;;;5009046;28;20214;-76
2021/09/27 11:37:19;;;;;;;3.22;2.50;;;18.80;99.90;;;;;;5011259;28;20416;-75
2021/09/27 11:39:50;;;;;;;3.38;2.17;;;18.90;99.90;;;;;;5028860;28;20212;-75
2021/09/27 11:42:21;;;;;;;3.17;2.28;;;18.80;99.90;;;;;;5029110;28;20248;-75
2021/09/27 11:44:58;;;;;;;1.98;1.70;;;19.00;99.90;;;;;;5028961;28;20317;-75
2021/09/27 11:47:56;;;;;;;2.80;2.15;;;19.10;99.90;;;;;;5012145;28;20198;-75
2021/09/27 11:50:28;;;;;;;4.13;2.50;;;19.10;99.90;;;;;;5011889;28;20182;-75
2021/09/27 11:53:26;;;;;;;1.85;1.40;;;19.00;99.90;;;;;;5066386;28;20250;-74
2021/09/27 11:56:06;;;;;;;2.28;2.08;;;19.10;99.90;;;;;;5067680;28;20168;-77
2021/09/27 11:58:57;;;;;;;2.40;2.20;;;19.10;99.90;;;;;;5067589;28;20168;-74
2021/09/27 12:01:54;;;;;;;1.85;1.55;;;19.00;99.90;;;;;;5067401;28;20156;-76
2021/09/27 12:04:53;;;;;;;2.33;1.77;;;19.00;99.90;;;;;;5067476;28;20191;-76
2021/09/27 12:07:24;;;;;;;1.63;1.20;;;19.20;99.90;;;;;;5067526;28;20188;-76
2021/09/27 12:10:02;;;;;;;4.43;2.97;;;19.20;99.90;;;;;;5067304;28;20156;-76
2021/09/27 12:12:42;;;;;;;4.45;2.15;;;19.50;99.90;;;;;;5067471;28;20531;-77
2021/09/27 12:15:09;;;;;;;1.98;1.58;;;19.30;99.90;;;;;;5067451;28;20188;-77
2021/09/27 12:17:40;;;;;;;2.45;2.17;;;19.40;99.90;;;;;;5049352;28;20200;-75
2021/09/27 12:20:17;;;;;;;2.65;2.20;;;19.70;99.90;;;;;;5064007;28;20218;-76
2021/09/27 12:22:51;;;;;;;5.03;2.78;;;19.80;99.90;;;;;;5056761;28;20241;-78
2021/09/27 12:25:27;;;;;;;3.42;2.22;;;19.80;99.90;;;;;;5064211;28;20175;-79
2021/09/27 12:28:01;;;;;;;2.67;2.47;;;19.60;99.90;;;;;;5083960;28;20294;-80
2021/09/27 12:30:32;;;;;;;2.67;1.77;;;19.80;99.90;;;;;;5087457;28;20155;-79
2021/09/27 12:33:16;;;;;;;2.35;1.63;;;19.80;99.90;;;;;;5085535;28;20154;-79
2021/09/27 12:35:44;;;;;;;2.03;1.45;;;19.90;99.90;;;;;;5066173;28;20196;-78
2021/09/27 12:38:17;;;;;;;2.72;1.77;;;19.90;99.90;;;;;;5067815;28;20183;-78
2021/09/27 12:40:48;;;;;;;2.42;1.70;;;19.90;99.90;;;;;;5070855;28;20196;-79
2021/09/27 12:43:19;;;;;;;5.15;1.58;;;19.90;99.90;;;;;;5066755;28;20203;-78
2021/09/27 12:45:54;;;;;;;2.42;1.60;;;20.00;99.90;;;;;;5066863;28;20160;-77
2021/09/27 12:48:33;;;;;;;2.45;1.73;;;20.10;99.90;;;;;;5070421;28;20192;-78
2021/09/27 12:51:12;;;;;;;2.80;1.80;;;20.00;99.90;;;;;;5070337;28;20554;-78
2021/09/27 12:53:51;;;;;;;1.40;1.30;;;19.90;99.90;;;;;;5070350;28;20160;-79
2021/09/27 12:56:18;;;;;;;2.72;1.63;;;19.80;99.90;;;;;;5052417;28;20176;-78
2021/09/27 12:59:06;;;;;;;1.65;1.20;;;19.90;99.90;;;;;;5070336;28;20175;-78
2021/09/27 13:01:37;;;;;;;2.35;1.58;;;20.00;99.90;;;;;;5070450;28;20184;-79
2021/09/27 13:04:10;;;;;;;2.58;1.98;;;20.20;99.90;;;;;;5069631;28;20195;-77
2021/09/27 13:07:03;;;;;;;2.72;2.22;;;20.20;99.90;;;;;;5070332;28;20161;-78
2021/09/27 13:09:32;;;;;;;2.35;1.30;;;20.20;99.90;;;;;;5062837;28;20298;-79
2021/09/27 13:12:23;;;;;;;1.70;1.60;;;20.50;99.90;;;;;;5069973;28;20172;-78
2021/09/27 13:14:59;;;;;;;3.28;2.13;;;20.80;99.90;;;;;;5069932;28;20154;-78
2021/09/27 13:17:29;;;;;;;1.60;1.50;;;20.90;99.90;;;;;;5070352;28;20235;-78
2021/09/27 13:19:57;;;;;;;1.88;1.73;;;20.70;99.90;;;;;;5070000;28;20170;-78
2021/09/27 13:22:51;;;;;;;2.85;1.65;;;20.70;99.90;;;;;;5069990;28;20311;-79
2021/09/27 13:25:36;;;;;;;1.45;1.20;;;20.50;99.90;;;;;;5066476;28;20180;-78
2021/09/27 13:28:25;;;;;;;2.58;2.10;;;20.40;99.90;;;;;;5069716;28;20200;-78
2021/09/27 13:31:05;;;;;;;4.15;1.55;;;20.70;99.90;;;;;;5068847;28;20152;-78